Terminal Aerodrome Forecast
Issued by NWS

Home | Current Version | Previous Version | Text Only | Print | Product List | Glossary Off
Versions: 1 2 3 4 5 6 7 8 9 10 11 12 13 14 15 16 17 18 19 20 21

000
FTUS43 KABR 260100 AAA
TAFATY
TAF AMD
KATY 260126Z 2601/2624 01015KT 1SM -SN BR OVC006
     FM260500 36012KT 2SM -SN OVC015
     FM261200 36012KT P6SM OVC025=

USA.gov is the U.S. government's official web portal to all federal, state and local government web resources and services.